Time;durP1;ratioP1;P1;durP2;ratioP2;P2;SDS_P1;SDS_P2;PMS_P1;PMS_P2;Temp;Humidity;BMP_temperature;BMP_pressure;BME280_temperature;BME280_humidity;BME280_pressure;Samples;Min_cycle;Max_cycle;Signal;HPM_P1;HPM_P2
2022/12/20 00:01:08;;;;;;;14.45;7.35;;;;;;;-1.15;82.99;96450.13;5031059;28;20262;-81
2022/12/20 00:03:35;;;;;;;14.88;7.53;;;;;;;-1.12;83.03;96457.69;5031077;28;20296;-80
2022/12/20 00:06:02;;;;;;;15.18;7.32;;;;;;;-1.25;83.67;96458.56;5030715;28;20574;-81
2022/12/20 00:08:29;;;;;;;14.05;7.05;;;;;;;-1.19;83.44;96462.19;5024776;28;20235;-82
2022/12/20 00:10:56;;;;;;;15.18;7.25;;;;;;;-1.21;83.66;96466.91;5030552;28;20212;-82
2022/12/20 00:13:23;;;;;;;12.27;6.35;;;;;;;-1.26;83.84;96469.38;5030575;28;20200;-84
2022/12/20 00:15:49;;;;;;;15.95;7.65;;;;;;;-1.28;84.16;96463.47;5019387;28;20236;-82
2022/12/20 00:18:18;;;;;;;18.88;7.47;;;;;;;-1.26;83.39;96464.06;5030540;28;20212;-80
2022/12/20 00:20:45;;;;;;;17.85;7.20;;;;;;;-1.20;83.20;96473.84;5030572;28;20216;-84
2022/12/20 00:23:12;;;;;;;14.32;6.15;;;;;;;-1.15;82.70;96474.06;5030818;28;20216;-81
2022/12/20 00:25:38;;;;;;;12.40;7.10;;;;;;;-1.15;82.67;96474.06;5021992;28;20290;-82
2022/12/20 00:28:05;;;;;;;15.60;6.35;;;;;;;-1.08;82.13;96469.53;5028838;28;20603;-80
2022/12/20 00:30:32;;;;;;;13.60;6.40;;;;;;;-1.13;82.29;96472.84;5029945;28;20730;-82
2022/12/20 00:32:59;;;;;;;13.10;6.78;;;;;;;-1.10;81.93;96471.59;5023322;28;20255;-81
2022/12/20 00:35:27;;;;;;;14.32;6.07;;;;;;;-1.06;81.72;96472.78;5016807;28;20212;-81
2022/12/20 00:37:53;;;;;;;3.80;2.60;;;;;;;-1.07;81.99;96473.81;5013604;28;20205;-83
2022/12/20 00:40:20;;;;;;;12.73;6.03;;;;;;;-1.13;82.01;96466.69;5030222;28;20208;-80
2022/12/20 00:42:47;;;;;;;14.57;6.90;;;;;;;-1.11;81.98;96467.31;5029989;28;20231;-82
2022/12/20 00:45:14;;;;;;;11.35;5.32;;;;;;;-1.23;81.87;96458.34;5023694;28;20287;-79
2022/12/20 00:47:41;;;;;;;12.70;6.45;;;;;;;-1.21;82.12;96458.94;5027762;28;20278;-82
2022/12/20 00:50:08;;;;;;;13.20;7.00;;;;;;;-1.29;82.24;96453.84;5030686;28;20200;-82
2022/12/20 00:52:36;;;;;;;13.55;6.18;;;;;;;-1.28;82.30;96458.97;5029786;28;20212;-83
2022/12/20 00:55:03;;;;;;;12.25;5.00;;;;;;;-1.29;82.50;96467.13;5028396;28;20197;-83
2022/12/20 00:57:30;;;;;;;3.55;1.52;;;;;;;-1.36;82.70;96461.00;5028081;28;20224;-82
2022/12/20 00:59:57;;;;;;;3.33;1.67;;;;;;;-1.34;82.39;96469.59;5029687;28;20789;-80
2022/12/20 01:02:24;;;;;;;3.95;1.70;;;;;;;-1.41;82.03;96471.47;5029555;28;20678;-81
2022/12/20 01:04:51;;;;;;;3.90;1.85;;;;;;;-1.47;82.79;96471.25;5027339;28;20204;-81
2022/12/20 01:07:18;;;;;;;3.47;1.88;;;;;;;-1.61;81.58;96437.75;5026623;28;20263;-82
2022/12/20 01:09:46;;;;;;;8.27;3.22;;;;;;;-1.40;81.71;96465.94;5029468;28;20256;-81
2022/12/20 01:12:13;;;;;;;10.70;4.97;;;;;;;-1.49;81.96;96451.22;5024719;28;20204;-82
2022/12/20 01:14:40;;;;;;;14.07;5.13;;;;;;;-1.46;82.29;96462.25;5028203;28;20201;-80
2022/12/20 01:17:07;;;;;;;14.70;5.68;;;;;;;-1.49;82.01;96462.66;5028169;28;20237;-79
2022/12/20 01:19:34;;;;;;;11.40;5.45;;;;;;;-1.45;82.17;96453.25;5022965;28;20545;-80
2022/12/20 01:22:01;;;;;;;25.63;9.90;;;;;;;-1.50;82.47;96454.91;5020495;28;20578;-82
2022/12/20 01:24:28;;;;;;;15.35;7.07;;;;;;;-1.53;82.21;96460.66;5015761;28;20874;-80
2022/12/20 01:26:56;;;;;;;12.50;6.35;;;;;;;-1.49;82.50;96452.03;5026299;28;20659;-82
2022/12/20 01:29:23;;;;;;;10.48;4.72;;;;;;;-1.53;82.68;96450.03;5024157;28;20211;-81
2022/12/20 01:31:49;;;;;;;14.93;6.72;;;;;;;-1.53;82.67;96440.22;5020594;28;20204;-84
2022/12/20 01:34:16;;;;;;;16.63;6.82;;;;;;;-1.59;82.95;96435.72;5016783;28;20212;-81
2022/12/20 01:36:43;;;;;;;10.60;5.90;;;;;;;-1.58;82.82;96431.22;5028808;28;20227;-82
2022/12/20 01:39:13;;;;;;;14.93;7.07;;;;;;;-1.62;83.25;96437.94;5027845;28;20218;-80
2022/12/20 01:41:40;;;;;;;15.45;6.50;;;;;;;-1.65;83.28;96431.25;5029002;28;20274;-81
2022/12/20 01:44:40;;;;;;;12.30;5.47;;;;;;;-1.67;83.06;96433.28;5029151;28;20234;-80
2022/12/20 01:47:09;;;;;;;12.18;5.45;;;;;;;-1.67;83.43;96427.97;5028111;28;20595;-82
2022/12/20 01:49:41;;;;;;;11.73;6.25;;;;;;;-1.69;83.05;96416.72;5020168;28;20196;-82
2022/12/20 01:52:11;;;;;;;10.98;4.97;;;;;;;-1.70;82.99;96428.38;5016838;28;20194;-82
2022/12/20 01:54:41;;;;;;;7.00;4.15;;;;;;;-1.73;82.85;96418.16;5028960;28;20204;-82
2022/12/20 01:57:12;;;;;;;12.27;5.50;;;;;;;-1.73;82.95;96412.03;5024741;28;20863;-83
2022/12/20 01:59:44;;;;;;;11.60;5.43;;;;;;;-1.78;83.32;96412.66;5028627;28;20196;-83
2022/12/20 02:02:13;;;;;;;10.45;6.32;;;;;;;-1.80;83.11;96414.69;5023533;28;20192;-82
2022/12/20 02:04:40;;;;;;;14.50;6.35;;;;;;;-1.83;83.33;96407.13;5036197;28;20200;-81
2022/12/20 02:07:11;;;;;;;7.43;4.43;;;;;;;-1.85;83.20;96409.19;5022581;28;20192;-81
2022/12/20 02:09:38;;;;;;;11.98;5.38;;;;;;;-1.84;83.02;96421.44;5031377;28;20629;-83
2022/12/20 02:12:10;;;;;;;9.35;5.43;;;;;;;-1.87;82.88;96408.56;5027355;28;20212;-80
2022/12/20 02:14:52;;;;;;;9.25;5.20;;;;;;;-1.94;82.87;96405.13;5019192;28;20803;-84
2022/12/20 02:17:33;;;;;;;14.50;6.13;;;;;;;-1.94;82.75;96415.72;5034216;28;20683;-81
2022/12/20 02:20:30;;;;;;;10.68;4.72;;;;;;;-1.98;82.90;96407.34;5023028;28;20606;-80
2022/12/20 02:23:16;;;;;;;10.95;5.45;;;;;;;-2.03;82.94;96406.31;5035759;28;20223;-81
2022/12/20 02:25:50;;;;;;;15.93;7.45;;;;;;;-2.06;83.26;96417.38;5033153;28;20219;-82
2022/12/20 02:28:33;;;;;;;14.65;6.53;;;;;;;-2.05;82.95;96409.19;5037805;28;20188;-83
2022/12/20 02:31:11;;;;;;;6.13;3.78;;;;;;;-2.05;83.38;96413.69;5025865;28;20204;-81
2022/12/20 02:33:39;;;;;;;15.85;6.88;;;;;;;-2.10;83.40;96408.19;5038937;28;20223;-82
2022/12/20 02:36:06;;;;;;;10.02;5.60;;;;;;;-2.11;83.21;96403.88;5026480;28;20697;-82
2022/12/20 02:38:36;;;;;;;14.88;6.30;;;;;;;-2.08;83.53;96411.44;5023986;28;20680;-82
2022/12/20 02:41:09;;;;;;;14.07;6.18;;;;;;;-2.11;83.41;96411.84;5016838;28;20636;-82
2022/12/20 02:46:26;;;;;;;15.40;6.95;;;;;;;-2.11;83.20;96401.22;5031813;28;20203;-83
2022/12/20 02:48:59;;;;;;;13.65;6.80;;;;;;;-2.14;82.99;96399.78;5032461;28;20552;-82
2022/12/20 02:51:29;;;;;;;11.80;6.35;;;;;;;-2.18;83.35;96399.38;5034693;28;20699;-82
2022/12/20 02:53:57;;;;;;;13.60;6.90;;;;;;;-2.18;83.23;96391.41;5035058;28;20212;-82
2022/12/20 02:56:31;;;;;;;13.80;6.32;;;;;;;-2.20;83.76;96397.97;5031034;28;20285;-84
2022/12/20 02:59:07;;;;;;;7.45;3.92;;;;;;;-2.24;83.79;96397.56;5034536;28;20208;-83
2022/12/20 03:01:48;;;;;;;16.67;6.68;;;;;;;-2.23;84.01;96391.22;5034330;28;20188;-83
2022/12/20 03:04:16;;;;;;;15.15;6.65;;;;;;;-2.25;83.95;96395.09;5035717;28;20593;-82
2022/12/20 03:06:56;;;;;;;13.77;6.43;;;;;;;-2.22;83.38;96395.53;5034743;28;20742;-83
2022/12/20 03:09:23;;;;;;;16.10;7.05;;;;;;;-2.29;84.06;96392.03;5033549;28;20228;-82
2022/12/20 03:11:50;;;;;;;15.10;6.90;;;;;;;-2.25;84.31;96393.28;5017811;28;20606;-82
2022/12/20 03:14:17;;;;;;;15.82;7.50;;;;;;;-2.23;84.54;96395.72;5019433;28;20565;-82
2022/12/20 03:16:45;;;;;;;12.32;6.25;;;;;;;-2.30;84.38;96379.78;5019848;28;20228;-84
2022/12/20 03:19:12;;;;;;;2.88;2.03;;;;;;;-2.27;84.29;96389.19;5015021;28;20209;-84
2022/12/20 03:21:39;;;;;;;5.60;3.13;;;;;;;-2.33;84.54;96384.69;5031009;28;20208;-83
2022/12/20 03:24:06;;;;;;;13.50;6.30;;;;;;;-2.33;84.72;96374.09;5031816;28;20204;-82
2022/12/20 03:26:33;;;;;;;13.23;7.35;;;;;;;-2.38;84.64;96381.84;5029265;28;20222;-83
2022/12/20 03:28:59;;;;;;;14.27;7.18;;;;;;;-2.37;84.22;96384.28;5028605;28;20741;-83
2022/12/20 03:31:26;;;;;;;16.80;6.88;;;;;;;-2.47;84.63;96373.25;5018347;28;20200;-83
2022/12/20 03:33:55;;;;;;;15.65;6.78;;;;;;;-2.40;84.85;96379.38;5019123;28;20205;-82
2022/12/20 03:36:22;;;;;;;16.35;8.05;;;;;;;-2.41;85.11;96383.06;5031381;28;20200;-82
2022/12/20 03:38:48;;;;;;;16.40;7.88;;;;;;;-2.55;85.73;96386.72;5031172;28;20323;-82
2022/12/20 03:41:15;;;;;;;13.10;7.43;;;;;;;-2.62;86.05;96385.91;5018395;28;20200;-83
2022/12/20 03:43:42;;;;;;;16.27;7.90;;;;;;;-2.59;86.22;96380.16;5031214;28;20204;-83
2022/12/20 03:46:09;;;;;;;17.90;8.02;;;;;;;-2.57;86.60;96378.13;5023655;28;20204;-82
2022/12/20 03:48:36;;;;;;;14.30;7.80;;;;;;;-2.62;86.58;96380.59;5030237;28;20228;-83
2022/12/20 03:51:04;;;;;;;15.68;7.63;;;;;;;-2.56;86.99;96387.72;5031166;28;20197;-82
2022/12/20 03:53:31;;;;;;;18.80;9.00;;;;;;;-2.64;87.00;96386.09;5031387;28;20204;-83
2022/12/20 03:55:58;;;;;;;18.52;8.63;;;;;;;-2.66;87.02;96379.34;5028129;28;20201;-82
2022/12/20 03:58:25;;;;;;;19.98;8.80;;;;;;;-2.71;87.10;96371.16;5027040;28;20228;-83
2022/12/20 04:00:52;;;;;;;18.00;8.85;;;;;;;-2.73;87.41;96379.31;5020895;28;20205;-83
2022/12/20 04:03:18;;;;;;;16.63;8.57;;;;;;;-2.82;87.62;96363.81;5024846;28;20725;-82
2022/12/20 04:05:45;;;;;;;16.58;8.48;;;;;;;-2.78;87.31;96381.78;5021118;28;20228;-81
2022/12/20 04:08:13;;;;;;;14.00;6.22;;;;;;;-2.79;87.79;96379.34;5030388;28;20204;-81
2022/12/20 04:13:21;;;;;;;15.85;8.00;;;;;;;-2.86;87.86;96385.41;5017141;28;20204;-81
2022/12/20 04:15:47;;;;;;;16.60;8.25;;;;;;;-2.84;87.75;96382.56;5019624;28;20248;-82
2022/12/20 04:18:14;;;;;;;15.23;7.88;;;;;;;-2.87;87.85;96373.19;5029490;28;20232;-83
2022/12/20 04:20:41;;;;;;;16.05;7.75;;;;;;;-2.84;87.55;96379.09;5018125;28;20205;-83
2022/12/20 04:23:08;;;;;;;16.50;7.95;;;;;;;-2.93;87.99;96370.53;5024391;28;20208;-84
2022/12/20 04:25:36;;;;;;;19.13;8.45;;;;;;;-3.03;87.95;96362.16;5016432;28;20248;-84
2022/12/20 04:28:03;;;;;;;17.92;8.32;;;;;;;-3.00;88.39;96359.91;5030289;28;21024;-82
2022/12/20 04:30:29;;;;;;;16.50;8.15;;;;;;;-2.96;88.36;96363.78;5044328;28;20200;-84
2022/12/20 04:33:00;;;;;;;16.00;7.25;;;;;;;-2.99;88.94;96366.81;5048905;28;20216;-83
2022/12/20 04:35:27;;;;;;;16.52;8.75;;;;;;;-3.02;88.65;96369.09;5043473;28;20682;-83
2022/12/20 04:37:53;;;;;;;18.38;8.13;;;;;;;-3.02;88.89;96369.91;5048478;28;20238;-84
2022/12/20 04:40:21;;;;;;;16.80;9.32;;;;;;;-3.04;88.85;96361.31;5048122;28;20722;-85
2022/12/20 04:42:49;;;;;;;18.17;8.57;;;;;;;-2.99;88.25;96369.47;5034518;28;20201;-84
2022/12/20 04:45:16;;;;;;;22.40;10.00;;;;;;;-3.06;89.24;96368.66;5035877;28;20252;-84
2022/12/20 04:47:43;;;;;;;21.13;10.45;;;;;;;-3.00;90.25;96362.53;5038567;28;20982;-84
2022/12/20 04:50:10;;;;;;;15.68;9.05;;;;;;;-2.97;89.51;96362.16;5040895;28;20781;-83
2022/12/20 04:55:21;;;;;;;19.15;9.60;;;;;;;-3.01;88.66;96366.25;5037925;28;20315;-85
2022/12/20 04:57:49;;;;;;;16.60;8.70;;;;;;;-3.08;89.00;96360.09;5041870;28;20778;-85
2022/12/20 05:00:17;;;;;;;17.83;8.82;;;;;;;-3.03;89.05;96362.97;5025368;28;20196;-84
2022/12/20 05:02:43;;;;;;;4.72;2.08;;;;;;;-3.19;89.50;96363.31;5027786;28;20213;-83
2022/12/20 05:05:10;;;;;;;18.80;9.02;;;;;;;-3.14;89.06;96371.47;5019676;28;20197;-85
2022/12/20 05:07:37;;;;;;;20.35;10.68;;;;;;;-3.11;88.95;96363.13;5024989;28;20197;-87
2022/12/20 05:10:09;;;;;;;1.35;1.25;;;;;;;-3.07;88.76;96356.41;5028709;28;20255;-85
2022/12/20 05:12:36;;;;;;;6.63;4.30;;;;;;;-3.08;88.53;96353.97;5035383;28;20201;-83
2022/12/20 05:15:04;;;;;;;21.02;9.27;;;;;;;-3.09;87.97;96361.09;5030581;28;20559;-83
2022/12/20 05:17:31;;;;;;;22.15;9.07;;;;;;;-3.18;88.89;96362.31;5030034;28;20216;-82
2022/12/20 05:19:58;;;;;;;19.08;9.30;;;;;;;-3.15;88.42;96359.25;5019724;28;20744;-83
2022/12/20 05:27:58;;;;;;;17.73;8.73;;;;;;;-3.17;88.89;96360.47;5044785;28;20228;-86
2022/12/20 05:30:27;;;;;;;19.55;8.98;;;;;;;-3.28;89.01;96372.47;5044189;28;20192;-85
2022/12/20 05:32:54;;;;;;;15.57;9.18;;;;;;;-3.31;89.40;96364.91;5023489;28;20208;-85
2022/12/20 05:35:22;;;;;;;16.10;8.30;;;;;;;-3.19;88.92;96363.31;5036129;28;20219;-84
2022/12/20 05:37:49;;;;;;;20.90;8.82;;;;;;;-3.15;89.48;96367.22;5036171;28;20560;-86
2022/12/20 05:40:16;;;;;;;14.70;8.73;;;;;;;-3.16;89.27;96368.22;5036136;28;20200;-84
2022/12/20 05:42:43;;;;;;;24.08;9.82;;;;;;;-3.31;89.65;96371.03;5037133;28;20200;-85
2022/12/20 05:45:10;;;;;;;10.50;5.93;;;;;;;-3.34;89.93;96368.75;5031465;28;20271;-85
2022/12/20 05:47:38;;;;;;;20.85;9.35;;;;;;;-3.35;90.08;96384.84;5038641;28;20604;-85
2022/12/20 05:50:07;;;;;;;21.38;11.13;;;;;;;-3.26;90.24;96373.06;5037807;28;20200;-85
2022/12/20 05:52:33;;;;;;;26.80;10.15;;;;;;;-3.32;89.95;96380.00;5029946;28;20205;-84
2022/12/20 05:55:00;;;;;;;21.13;9.70;;;;;;;-3.28;90.24;96385.72;5031015;28;20200;-84
2022/12/20 05:57:30;;;;;;;20.40;9.80;;;;;;;-3.28;90.32;96375.13;5032992;28;20223;-85
2022/12/20 05:59:59;;;;;;;26.10;9.98;;;;;;;-3.27;90.19;96382.03;5037642;28;20223;-84
2022/12/20 06:02:26;;;;;;;24.75;11.00;;;;;;;-3.23;91.00;96377.97;5037324;28;20212;-84
2022/12/20 06:04:54;;;;;;;17.08;9.60;;;;;;;-3.26;89.41;96383.66;5026694;28;20188;-84
2022/12/20 06:07:21;;;;;;;22.40;9.38;;;;;;;-3.15;90.81;96383.13;5033664;28;20204;-85
2022/12/20 06:09:48;;;;;;;33.10;13.65;;;;;;;-2.97;90.92;96388.66;5029616;28;20244;-84
2022/12/20 06:12:15;;;;;;;33.47;14.15;;;;;;;-2.93;89.92;96374.00;5034711;28;20196;-84
2022/12/20 06:14:41;;;;;;;29.40;14.23;;;;;;;-2.76;89.83;96368.31;5020957;28;20205;-84
2022/12/20 06:17:11;;;;;;;33.03;12.65;;;;;;;-2.70;89.48;96378.94;5027449;28;20660;-84
2022/12/20 06:19:40;;;;;;;25.38;12.35;;;;;;;-2.47;89.28;96378.56;5035271;28;20200;-85
2022/12/20 06:22:09;;;;;;;26.02;12.60;;;;;;;-2.11;88.18;96377.34;5039189;28;20283;-84
2022/12/20 06:24:36;;;;;;;25.92;12.00;;;;;;;-1.66;86.32;96375.66;5021752;28;20216;-85
2022/12/20 06:27:03;;;;;;;27.80;10.90;;;;;;;-1.31;85.10;96373.50;5036938;28;20266;-85
2022/12/20 06:29:30;;;;;;;22.63;9.57;;;;;;;-1.42;83.60;96367.00;5034183;28;20204;-84
2022/12/20 06:31:57;;;;;;;22.63;11.18;;;;;;;-1.55;82.95;96372.34;5039106;28;20216;-84
2022/12/20 06:34:24;;;;;;;4.18;2.78;;;;;;;-1.98;82.55;96372.03;5038565;28;20262;-84
2022/12/20 06:36:51;;;;;;;6.88;2.78;;;;;;;-2.25;84.02;96381.84;5036715;28;20212;-86
2022/12/20 06:39:19;;;;;;;15.50;4.60;;;;;;;-2.35;84.93;96368.97;5043610;28;20248;-83
2022/12/20 06:41:46;;;;;;;2.40;1.58;;;;;;;-2.32;85.22;96368.56;5037709;28;20200;-83
2022/12/20 06:44:14;;;;;;;3.70;2.65;;;;;;;-2.28;85.20;96372.44;5037313;28;20204;-83
2022/12/20 06:46:41;;;;;;;4.82;2.25;;;;;;;-2.45;84.58;96370.38;5032880;28;20715;-84
2022/12/20 06:49:08;;;;;;;2.00;1.83;;;;;;;-2.33;85.42;96374.91;5030923;28;20266;-84
2022/12/20 06:51:35;;;;;;;2.78;1.27;;;;;;;-2.26;84.71;96359.78;5033914;28;20575;-84
2022/12/20 06:54:02;;;;;;;5.05;1.55;;;;;;;-2.23;84.32;96359.38;5020396;28;20675;-83
2022/12/20 06:56:30;;;;;;;8.18;3.15;;;;;;;-0.63;100.00;96355.16;5030506;28;20254;-78
2022/12/20 06:58:56;;;;;;;4.40;1.35;;;;;;;-0.55;100.00;96347.75;5029875;28;20699;-80
2022/12/20 07:01:23;;;;;;;8.23;4.47;;;;;;;-1.71;84.33;96357.66;5029451;28;20251;-81
2022/12/20 07:03:50;;;;;;;6.15;1.98;;;;;;;-2.20;84.27;96343.06;5022728;28;20254;-82
2022/12/20 07:06:17;;;;;;;2.65;2.03;;;;;;;-2.27;84.52;96341.41;5029273;28;20197;-80
2022/12/20 07:08:44;;;;;;;6.95;3.13;;;;;;;-2.34;84.15;96336.13;5018711;28;20817;-80
2022/12/20 07:11:10;;;;;;;3.33;2.40;;;;;;;-2.22;82.99;96338.97;5029520;28;20254;-78
2022/12/20 07:13:39;;;;;;;22.63;10.57;;;;;;;-2.18;82.39;96335.69;5032334;28;20211;-79
2022/12/20 07:16:06;;;;;;;23.20;10.07;;;;;;;-2.16;81.37;96344.25;5019342;28;20205;-80
2022/12/20 07:18:34;;;;;;;18.13;9.38;;;;;;;-2.13;80.66;96345.69;5030281;28;20389;-81
2022/12/20 07:21:01;;;;;;;3.97;2.50;;;;;;;-2.08;80.28;96334.47;5021615;28;20206;-81
2022/12/20 07:23:28;;;;;;;3.28;2.50;;;;;;;-1.77;80.70;96347.88;5018696;28;20283;-80
2022/12/20 07:25:55;;;;;;;3.65;2.20;;;;;;;-1.73;79.86;96338.47;5025688;28;20200;-79
2022/12/20 07:28:22;;;;;;;3.70;2.05;;;;;;;-1.51;78.48;96336.38;5022432;28;20255;-79
2022/12/20 07:30:51;;;;;;;2.45;2.25;;;;;;;-1.50;77.84;96338.78;5024229;28;20606;-80
2022/12/20 07:33:18;;;;;;;7.05;3.10;;;;;;;-1.50;78.57;96333.47;5022359;28;20668;-80
2022/12/20 07:35:45;;;;;;;2.28;1.80;;;;;;;-1.50;78.31;96341.44;5022700;28;20201;-80
2022/12/20 07:38:12;;;;;;;4.13;2.00;;;;;;;-1.37;78.79;96343.28;5020562;28;20778;-80
2022/12/20 07:40:40;;;;;;;6.38;2.05;;;;;;;-1.40;77.37;96338.38;5014997;28;20201;-80
2022/12/20 07:43:07;;;;;;;3.00;1.83;;;;;;;-1.23;76.98;96338.72;5031388;28;20210;-80
2022/12/20 07:45:34;;;;;;;2.78;1.58;;;;;;;-1.26;76.97;96339.13;5020849;28;20209;-80
2022/12/20 07:48:02;;;;;;;6.53;2.38;;;;;;;-1.23;77.06;96338.72;5029395;28;20707;-80
2022/12/20 07:50:31;;;;;;;4.65;1.63;;;;;;;-1.15;75.31;96336.63;5034493;28;20205;-80
2022/12/20 07:52:58;;;;;;;1.48;1.38;;;;;;;-1.03;75.09;96336.75;5030918;28;20223;-78
2022/12/20 07:55:26;;;;;;;9.60;3.45;;;;;;;-1.20;74.62;96333.78;5030287;28;20201;-79
2022/12/20 07:57:57;;;;;;;3.65;2.15;;;;;;;-0.98;75.26;96326.31;5022805;28;20208;-79
2022/12/20 08:00:24;;;;;;;1.77;1.33;;;;;;;-1.19;73.71;96340.72;5015273;28;20208;-73
2022/12/20 08:02:56;;;;;;;4.30;1.65;;;;;;;-1.25;74.67;96335.44;5026741;28;20219;-75
2022/12/20 08:05:24;;;;;;;3.50;1.98;;;;;;;-1.20;74.52;96317.81;5029472;28;20197;-78
2022/12/20 08:07:53;;;;;;;14.30;2.80;;;;;;;-0.86;75.05;96316.63;5029675;28;20196;-81
2022/12/20 08:10:20;;;;;;;2.85;1.73;;;;;;;-0.82;72.57;96314.34;5022264;28;20239;-77
2022/12/20 08:12:49;;;;;;;3.70;1.85;;;;;;;-0.65;73.44;96309.31;5017533;28;20256;-75
2022/12/20 08:15:16;;;;;;;6.75;1.83;;;;;;;-0.54;72.50;96305.94;5023038;28;20275;-78
2022/12/20 08:17:43;;;;;;;1.55;1.20;;;;;;;-0.39;73.33;96306.44;5026511;28;20223;-78
2022/12/20 08:20:12;;;;;;;5.03;2.70;;;;;;;-0.29;71.77;96304.13;5030380;28;20293;-80
2022/12/20 08:22:40;;;;;;;6.40;2.33;;;;;;;-0.57;71.21;96311.72;5024598;28;20544;-80
2022/12/20 08:25:08;;;;;;;3.40;1.50;;;;;;;-0.61;71.54;96315.84;5024084;28;20189;-80
2022/12/20 08:27:34;;;;;;;0.95;0.90;;;;;;;-0.57;70.81;96311.72;5022253;28;20244;-79
2022/12/20 08:30:01;;;;;;;1.15;0.93;;;;;;;-0.56;70.52;96308.03;5022750;28;20250;-79
2022/12/20 08:32:28;;;;;;;3.35;2.17;;;;;;;-0.65;70.38;96309.31;5023652;28;20234;-77
2022/12/20 08:34:55;;;;;;;3.30;1.95;;;;;;;-0.56;70.55;96286.75;5024450;28;20210;-78
2022/12/20 08:37:22;;;;;;;2.67;1.80;;;;;;;-0.49;71.58;96303.47;5029241;28;20223;-84
2022/12/20 08:39:50;;;;;;;1.83;1.60;;;;;;;-0.23;71.14;96297.09;5027580;28;20227;-86
2022/12/20 08:42:17;;;;;;;2.42;2.22;;;;;;;-0.01;69.93;96293.81;5032073;28;20208;-83
2022/12/20 08:44:44;;;;;;;1.92;1.13;;;;;;;0.15;69.88;96295.06;5027518;28;20201;-80
2022/12/20 08:47:11;;;;;;;2.45;1.75;;;;;;;0.21;71.24;96288.06;5027234;28;20256;-83
2022/12/20 08:49:37;;;;;;;3.90;1.65;;;;;;;0.34;69.31;96288.72;5030500;28;20246;-82
2022/12/20 08:52:04;;;;;;;1.27;1.00;;;;;;;0.12;69.33;96286.72;5030121;28;20884;-80
2022/12/20 08:54:31;;;;;;;2.85;1.35;;;;;;;0.29;70.63;96290.41;5031203;28;20243;-81
2022/12/20 08:56:59;;;;;;;1.23;1.13;;;;;;;0.52;70.12;96290.56;5030122;28;20659;-83
2022/12/20 08:59:26;;;;;;;4.07;2.63;;;;;;;0.38;69.20;96294.44;5030254;28;20224;-81
2022/12/20 09:01:53;;;;;;;7.75;2.40;;;;;;;0.40;69.20;96287.03;5017708;28;20255;-80
2022/12/20 09:04:20;;;;;;;8.10;3.60;;;;;;;0.25;68.95;96278.59;5030863;28;20238;-81
2022/12/20 09:06:48;;;;;;;1.40;1.23;;;;;;;0.46;68.90;96275.47;5013967;28;20255;-82
2022/12/20 09:09:15;;;;;;;1.90;1.55;;;;;;;0.39;69.02;96272.06;5027239;28;20287;-80
2022/12/20 09:11:42;;;;;;;2.75;1.10;;;;;;;0.41;69.65;96264.66;5023984;28;20205;-80
2022/12/20 09:14:10;;;;;;;4.78;3.42;;;;;;;0.46;67.77;96259.47;5026528;28;20245;-80
2022/12/20 09:16:37;;;;;;;10.57;2.28;;;;;;;0.59;67.66;96264.63;5019312;28;20673;-82
2022/12/20 09:19:04;;;;;;;6.85;2.33;;;;;;;0.73;67.05;96253.78;5026956;28;20228;-79
2022/12/20 09:21:32;;;;;;;3.30;1.50;;;;;;;0.62;66.84;96263.38;5031098;28;20215;-78
2022/12/20 09:23:59;;;;;;;4.97;3.33;;;;;;;0.89;68.68;96258.50;5029201;28;20219;-80
2022/12/20 09:26:26;;;;;;;4.22;1.83;;;;;;;0.85;66.04;96251.97;5022016;28;20609;-79
2022/12/20 09:28:53;;;;;;;3.90;2.80;;;;;;;0.57;67.25;96245.38;5030290;28;20217;-80
2022/12/20 09:31:23;;;;;;;5.50;3.00;;;;;;;0.88;67.71;96240.88;5028318;28;20296;-80
2022/12/20 09:33:54;;;;;;;1.92;1.60;;;;;;;0.89;65.83;96232.66;5025122;28;20256;-79
2022/12/20 09:36:24;;;;;;;2.03;1.45;;;;;;;0.94;66.18;96239.97;5029835;28;20196;-79
2022/12/20 09:38:51;;;;;;;1.98;1.48;;;;;;;0.79;66.15;96236.91;5030172;28;20239;-79
2022/12/20 09:41:26;;;;;;;1.52;1.42;;;;;;;0.87;65.59;96229.38;5019611;28;20304;-80
2022/12/20 09:43:53;;;;;;;1.90;1.20;;;;;;;0.88;65.32;96235.53;5031273;28;20215;-78
2022/12/20 09:46:23;;;;;;;5.07;1.98;;;;;;;1.10;65.63;96223.28;5021721;28;20228;-79
2022/12/20 09:48:50;;;;;;;1.80;1.27;;;;;;;0.70;65.62;96223.88;5024717;28;20208;-78
2022/12/20 09:51:34;;;;;;;2.92;1.80;;;;;;;0.98;65.57;96223.25;5029314;28;20671;-83
2022/12/20 09:54:12;;;;;;;3.72;2.05;;;;;;;1.10;64.02;96219.81;5029847;28;20196;-80
2022/12/20 09:56:44;;;;;;;2.42;1.38;;;;;;;1.22;63.91;96205.47;5029989;28;20223;-79
2022/12/20 09:59:13;;;;;;;5.07;2.30;;;;;;;1.65;64.55;96201.66;5030603;28;20587;-81
2022/12/20 10:01:46;;;;;;;1.10;1.05;;;;;;;1.88;62.83;96188.28;5016364;28;20216;-82
2022/12/20 10:04:20;;;;;;;2.10;1.60;;;;;;;1.86;62.77;96198.41;5021650;28;20196;-80
2022/12/20 10:07:00;;;;;;;1.38;1.27;;;;;;;2.11;62.45;96195.44;5025842;28;20192;-81
2022/12/20 10:09:54;;;;;;;5.95;2.83;;;;;;;2.14;63.13;96182.44;5031745;28;20314;-80
2022/12/20 10:12:33;;;;;;;2.85;2.38;;;;;;;2.04;59.97;96179.56;5018512;28;20207;-79
2022/12/20 10:15:14;;;;;;;1.25;1.15;;;;;;;1.74;61.12;96171.69;5030369;28;20235;-81
2022/12/20 10:17:55;;;;;;;4.18;2.10;;;;;;;1.54;61.44;96165.06;5019304;28;20203;-78
2022/12/20 10:20:46;;;;;;;5.93;2.25;;;;;;;1.75;61.10;96156.50;5013016;28;20386;-79
2022/12/20 10:23:22;;;;;;;1.98;1.17;;;;;;;1.70;61.18;96151.03;5014354;28;20287;-80
2022/12/20 10:25:53;;;;;;;5.35;1.80;;;;;;;1.88;61.64;96137.53;5025230;28;20194;-80
2022/12/20 10:28:27;;;;;;;2.58;1.75;;;;;;;2.00;61.23;96135.63;5032810;28;20216;-79
2022/12/20 10:30:54;;;;;;;11.73;2.55;;;;;;;2.28;60.53;96128.69;5033253;28;20204;-78
2022/12/20 10:33:24;;;;;;;3.17;1.88;;;;;;;2.52;59.69;96114.16;5013479;28;20271;-80
2022/12/20 10:35:51;;;;;;;5.38;2.58;;;;;;;2.77;57.79;96101.22;5027743;28;20227;-79
2022/12/20 10:38:19;;;;;;;5.72;1.85;;;;;;;2.73;57.88;96097.41;5025871;28;20201;-81
2022/12/20 10:40:47;;;;;;;5.75;2.95;;;;;;;2.75;57.35;96097.16;5014176;28;20268;-79
2022/12/20 10:43:18;;;;;;;3.85;1.80;;;;;;;2.83;56.40;96092.25;5023060;28;20209;-79
2022/12/20 10:45:54;;;;;;;5.68;2.45;;;;;;;2.73;57.17;96089.38;5026232;28;20230;-82
2022/12/20 10:48:29;;;;;;;4.28;1.42;;;;;;;2.48;57.69;96076.38;5013866;28;20664;-79
2022/12/20 10:50:58;;;;;;;3.15;2.33;;;;;;;2.21;57.73;96080.72;5017424;28;20199;-79
2022/12/20 10:53:26;;;;;;;10.15;2.75;;;;;;;2.65;59.52;96073.75;5033166;28;20208;-79
2022/12/20 10:55:53;;;;;;;6.35;2.45;;;;;;;2.78;57.89;96070.75;5026749;28;20591;-80
2022/12/20 10:58:34;;;;;;;3.03;1.88;;;;;;;2.84;57.01;96059.09;5026428;28;20266;-79
2022/12/20 11:01:07;;;;;;;3.00;1.40;;;;;;;2.74;56.38;96064.25;5026070;28;20204;-77
2022/12/20 11:03:50;;;;;;;6.15;2.40;;;;;;;2.89;56.88;96066.38;5026582;28;20205;-81
2022/12/20 11:06:21;;;;;;;2.40;1.77;;;;;;;2.79;55.99;96063.53;5031232;28;20685;-81
2022/12/20 11:08:48;;;;;;;2.75;2.47;;;;;;;2.84;57.06;96059.09;5029679;28;20228;-80
2022/12/20 11:11:18;;;;;;;6.57;3.00;;;;;;;3.09;55.96;96061.34;5032740;28;20731;-78
2022/12/20 11:13:46;;;;;;;4.25;1.85;;;;;;;3.33;54.25;96056.59;5019646;28;20196;-80
2022/12/20 11:16:41;;;;;;;4.50;2.38;;;;;;;2.88;54.30;96048.69;5027255;28;20696;-77
2022/12/20 11:19:40;;;;;;;5.90;1.55;;;;;;;2.82;54.77;96050.47;5021891;28;20236;-79
2022/12/20 11:22:20;;;;;;;2.67;2.03;;;;;;;3.25;55.05;96042.81;5018146;28;20207;-79
2022/12/20 11:25:06;;;;;;;4.07;2.17;;;;;;;3.60;53.58;96034.44;5017105;28;20566;-77
2022/12/20 11:27:42;;;;;;;3.40;1.88;;;;;;;3.93;54.57;96031.63;5024530;28;20216;-80
2022/12/20 11:30:17;;;;;;;2.03;1.38;;;;;;;3.88;52.00;96020.84;5019545;28;20188;-79
2022/12/20 11:33:23;;;;;;;6.65;3.25;;;;;;;3.67;52.12;96021.69;5029028;28;20207;-78
2022/12/20 11:35:58;;;;;;;2.70;0.98;;;;;;;3.69;52.28;96024.94;5023260;28;20192;-78
2022/12/20 11:38:48;;;;;;;3.53;2.00;;;;;;;3.68;53.40;96012.59;5021074;28;20192;-82
2022/12/20 11:41:26;;;;;;;2.47;2.10;;;;;;;3.56;52.92;96018.84;5014574;28;20280;-81
2022/12/20 11:44:06;;;;;;;2.35;1.48;;;;;;;3.57;53.89;96015.13;5021601;28;20199;-83
2022/12/20 11:46:55;;;;;;;2.25;1.85;;;;;;;3.61;53.47;96003.91;5031175;28;20232;-80
2022/12/20 11:49:47;;;;;;;4.53;2.10;;;;;;;3.54;52.99;96004.94;5031139;28;20288;-81
2022/12/20 11:52:27;;;;;;;3.58;0.98;;;;;;;3.50;53.33;96008.34;5031373;28;20209;-81
2022/12/20 11:55:04;;;;;;;3.30;1.67;;;;;;;3.70;53.34;95997.03;5024379;28;20338;-81
2022/12/20 11:57:37;;;;;;;4.22;2.10;;;;;;;3.69;53.94;95990.09;5037698;28;20257;-79